sensor_id;sensor_type;location;lat;lon;timestamp;pressure;altitude;pressure_sealevel;temperature;humidity
27334;BME280;14817;57.104;-2.094;2023-03-04T00:00:28;102267.56;;;3.09;100.00
27334;BME280;14817;57.104;-2.094;2023-03-04T00:02:55;102265.91;;;3.06;100.00
27334;BME280;14817;57.104;-2.094;2023-03-04T00:05:22;102262.09;;;3.13;100.00
27334;BME280;14817;57.104;-2.094;2023-03-04T00:07:49;102260.00;;;2.99;100.00
27334;BME280;14817;57.104;-2.094;2023-03-04T00:10:15;102265.97;;;3.04;100.00
27334;BME280;14817;57.104;-2.094;2023-03-04T00:12:42;102261.72;;;3.00;100.00
27334;BME280;14817;57.104;-2.094;2023-03-04T00:15:09;102273.56;;;2.90;100.00
27334;BME280;14817;57.104;-2.094;2023-03-04T00:17:36;102263.25;;;2.84;100.00
27334;BME280;14817;57.104;-2.094;2023-03-04T00:20:03;102264.06;;;2.86;100.00
27334;BME280;14817;57.104;-2.094;2023-03-04T00:22:30;102263.19;;;2.85;100.00
27334;BME280;14817;57.104;-2.094;2023-03-04T00:24:56;102255.78;;;2.72;100.00
27334;BME280;14817;57.104;-2.094;2023-03-04T00:27:23;102257.81;;;2.65;100.00
27334;BME280;14817;57.104;-2.094;2023-03-04T00:29:50;102253.00;;;2.75;100.00
27334;BME280;14817;57.104;-2.094;2023-03-04T00:32:16;102248.25;;;2.61;100.00
27334;BME280;14817;57.104;-2.094;2023-03-04T00:34:43;102245.66;;;2.59;100.00
27334;BME280;14817;57.104;-2.094;2023-03-04T00:37:10;102244.81;;;2.59;100.00
27334;BME280;14817;57.104;-2.094;2023-03-04T00:39:37;102250.09;;;2.59;100.00
27334;BME280;14817;57.104;-2.094;2023-03-04T00:42:04;102248.44;;;2.56;100.00
27334;BME280;14817;57.104;-2.094;2023-03-04T00:44:30;102256.44;;;2.55;100.00
27334;BME280;14817;57.104;-2.094;2023-03-04T00:46:58;102247.31;;;2.62;100.00
27334;BME280;14817;57.104;-2.094;2023-03-04T00:49:25;102248.22;;;2.62;100.00
27334;BME280;14817;57.104;-2.094;2023-03-04T00:51:51;102258.22;;;2.54;100.00
27334;BME280;14817;57.104;-2.094;2023-03-04T00:54:18;102253.84;;;2.53;100.00
27334;BME280;14817;57.104;-2.094;2023-03-04T00:56:45;102254.63;;;2.55;100.00
27334;BME280;14817;57.104;-2.094;2023-03-04T00:59:12;102261.81;;;2.52;100.00
27334;BME280;14817;57.104;-2.094;2023-03-04T01:01:38;102250.38;;;2.51;100.00
27334;BME280;14817;57.104;-2.094;2023-03-04T01:04:05;102245.94;;;2.52;100.00
27334;BME280;14817;57.104;-2.094;2023-03-04T01:06:32;102250.38;;;2.51;100.00
27334;BME280;14817;57.104;-2.094;2023-03-04T01:08:59;102246.75;;;2.54;100.00
27334;BME280;14817;57.104;-2.094;2023-03-04T01:11:25;102247.16;;;2.43;100.00
27334;BME280;14817;57.104;-2.094;2023-03-04T01:13:52;102240.91;;;2.45;100.00
27334;BME280;14817;57.104;-2.094;2023-03-04T01:16:19;102235.72;;;2.42;100.00
27334;BME280;14817;57.104;-2.094;2023-03-04T01:18:46;102234.41;;;2.31;100.00
27334;BME280;14817;57.104;-2.094;2023-03-04T01:21:13;102230.16;;;2.27;100.00
27334;BME280;14817;57.104;-2.094;2023-03-04T01:23:40;102231.09;;;2.24;100.00
27334;BME280;14817;57.104;-2.094;2023-03-04T01:26:07;102230.25;;;2.23;100.00
27334;BME280;14817;57.104;-2.094;2023-03-04T01:28:34;102229.41;;;2.23;100.00
27334;BME280;14817;57.104;-2.094;2023-03-04T01:31:02;102232.22;;;2.18;100.00
27334;BME280;14817;57.104;-2.094;2023-03-04T01:33:29;102223.34;;;2.19;100.00
27334;BME280;14817;57.104;-2.094;2023-03-04T01:35:56;102222.69;;;2.14;100.00
27334;BME280;14817;57.104;-2.094;2023-03-04T01:38:24;102214.69;;;2.16;100.00
27334;BME280;14817;57.104;-2.094;2023-03-04T01:40:51;102219.06;;;2.17;100.00
27334;BME280;14817;57.104;-2.094;2023-03-04T01:43:21;102217.25;;;2.17;100.00
27334;BME280;14817;57.104;-2.094;2023-03-04T01:45:50;102214.63;;;2.17;100.00
27334;BME280;14817;57.104;-2.094;2023-03-04T01:48:29;102217.34;;;2.16;100.00
27334;BME280;14817;57.104;-2.094;2023-03-04T01:50:57;102211.13;;;2.17;100.00
27334;BME280;14817;57.104;-2.094;2023-03-04T01:53:26;102211.97;;;2.17;100.00
27334;BME280;14817;57.104;-2.094;2023-03-04T01:55:55;102212.78;;;2.19;100.00
27334;BME280;14817;57.104;-2.094;2023-03-04T01:58:25;102204.94;;;2.18;100.00
27334;BME280;14817;57.104;-2.094;2023-03-04T02:00:54;102209.56;;;2.11;100.00
27334;BME280;14817;57.104;-2.094;2023-03-04T02:03:21;102207.66;;;2.15;100.00
27334;BME280;14817;57.104;-2.094;2023-03-04T02:05:49;102195.00;;;2.24;100.00
27334;BME280;14817;57.104;-2.094;2023-03-04T02:08:19;102200.56;;;2.17;100.00
27334;BME280;14817;57.104;-2.094;2023-03-04T02:10:47;102198.22;;;2.09;100.00
27334;BME280;14817;57.104;-2.094;2023-03-04T02:13:14;102197.63;;;2.01;100.00
27334;BME280;14817;57.104;-2.094;2023-03-04T02:15:43;102195.78;;;2.03;100.00
27334;BME280;14817;57.104;-2.094;2023-03-04T02:18:22;102194.16;;;1.99;100.00
27334;BME280;14817;57.104;-2.094;2023-03-04T02:20:59;102203.00;;;1.98;100.00
27334;BME280;14817;57.104;-2.094;2023-03-04T02:28:50;102186.69;;;1.87;100.00
27334;BME280;14817;57.104;-2.094;2023-03-04T02:33:59;102185.81;;;1.86;100.00
27334;BME280;14817;57.104;-2.094;2023-03-04T02:36:28;102183.50;;;1.77;100.00
27334;BME280;14817;57.104;-2.094;2023-03-04T02:39:00;102173.69;;;1.80;100.00
27334;BME280;14817;57.104;-2.094;2023-03-04T02:41:29;102173.75;;;1.79;100.00
27334;BME280;14817;57.104;-2.094;2023-03-04T02:43:57;102174.66;;;1.78;100.00
27334;BME280;14817;57.104;-2.094;2023-03-04T02:46:25;102169.59;;;1.72;100.00
27334;BME280;14817;57.104;-2.094;2023-03-04T02:48:52;102172.25;;;1.72;100.00
27334;BME280;14817;57.104;-2.094;2023-03-04T02:51:20;102175.88;;;1.69;100.00
27334;BME280;14817;57.104;-2.094;2023-03-04T02:53:46;102169.94;;;1.62;100.00
27334;BME280;14817;57.104;-2.094;2023-03-04T02:56:13;102167.97;;;1.68;100.00
27334;BME280;14817;57.104;-2.094;2023-03-04T02:58:40;102162.06;;;1.61;100.00
27334;BME280;14817;57.104;-2.094;2023-03-04T03:01:09;102166.66;;;1.56;100.00
27334;BME280;14817;57.104;-2.094;2023-03-04T03:03:36;102166.75;;;1.53;100.00
27334;BME280;14817;57.104;-2.094;2023-03-04T03:06:03;102159.00;;;1.48;100.00
27334;BME280;14817;57.104;-2.094;2023-03-04T03:08:30;102164.31;;;1.47;100.00
27334;BME280;14817;57.104;-2.094;2023-03-04T03:10:59;102162.41;;;1.52;100.00
27334;BME280;14817;57.104;-2.094;2023-03-04T03:13:26;102161.03;;;1.40;100.00
27334;BME280;14817;57.104;-2.094;2023-03-04T03:15:54;102173.38;;;1.39;100.00
27334;BME280;14817;57.104;-2.094;2023-03-04T03:18:23;102162.00;;;1.37;100.00
27334;BME280;14817;57.104;-2.094;2023-03-04T03:20:50;102159.44;;;1.34;100.00
27334;BME280;14817;57.104;-2.094;2023-03-04T03:23:16;102157.09;;;1.27;100.00
27334;BME280;14817;57.104;-2.094;2023-03-04T03:25:43;102164.66;;;1.37;100.00
27334;BME280;14817;57.104;-2.094;2023-03-04T03:28:10;102167.25;;;1.39;100.00
27334;BME280;14817;57.104;-2.094;2023-03-04T03:30:37;102165.44;;;1.39;100.00
27334;BME280;14817;57.104;-2.094;2023-03-04T03:33:05;102167.50;;;1.31;100.00
27334;BME280;14817;57.104;-2.094;2023-03-04T03:35:32;102155.47;;;1.22;100.00
27334;BME280;14817;57.104;-2.094;2023-03-04T03:37:59;102152.50;;;1.32;100.00
27334;BME280;14817;57.104;-2.094;2023-03-04T03:40:26;102149.13;;;1.28;100.00
27334;BME280;14817;57.104;-2.094;2023-03-04T03:42:53;102153.38;;;1.32;100.00
27334;BME280;14817;57.104;-2.094;2023-03-04T03:45:20;102149.72;;;1.36;100.00
27334;BME280;14817;57.104;-2.094;2023-03-04T03:47:46;102152.50;;;1.32;100.00
27334;BME280;14817;57.104;-2.094;2023-03-04T03:50:13;102149.63;;;1.39;100.00
27334;BME280;14817;57.104;-2.094;2023-03-04T03:52:40;102141.75;;;1.38;100.00
27334;BME280;14817;57.104;-2.094;2023-03-04T03:55:07;102144.78;;;1.52;100.00
27334;BME280;14817;57.104;-2.094;2023-03-04T03:57:34;102144.84;;;1.49;100.00
27334;BME280;14817;57.104;-2.094;2023-03-04T04:00:01;102135.88;;;1.55;100.00
27334;BME280;14817;57.104;-2.094;2023-03-04T04:02:37;102141.03;;;1.58;100.00
27334;BME280;14817;57.104;-2.094;2023-03-04T04:05:05;102135.81;;;1.56;100.00
27334;BME280;14817;57.104;-2.094;2023-03-04T04:07:32;102138.56;;;1.53;100.00
27334;BME280;14817;57.104;-2.094;2023-03-04T04:09:59;102132.38;;;1.54;100.00
27334;BME280;14817;57.104;-2.094;2023-03-04T04:12:26;102137.03;;;1.48;100.00
27334;BME280;14817;57.104;-2.094;2023-03-04T04:14:53;102130.72;;;1.52;100.00
27334;BME280;14817;57.104;-2.094;2023-03-04T04:17:19;102131.78;;;1.46;100.00
27334;BME280;14817;57.104;-2.094;2023-03-04T04:19:46;102134.31;;;1.49;100.00
27334;BME280;14817;57.104;-2.094;2023-03-04T04:22:15;102128.00;;;1.53;100.00
27334;BME280;14817;57.104;-2.094;2023-03-04T04:24:42;102123.47;;;1.57;100.00
27334;BME280;14817;57.104;-2.094;2023-03-04T04:27:10;102120.78;;;1.58;100.00
27334;BME280;14817;57.104;-2.094;2023-03-04T04:29:37;102125.94;;;1.61;100.00
27334;BME280;14817;57.104;-2.094;2023-03-04T04:32:04;102131.22;;;1.61;100.00
27334;BME280;14817;57.104;-2.094;2023-03-04T04:34:31;102122.41;;;1.62;100.00
27334;BME280;14817;57.104;-2.094;2023-03-04T04:36:58;102124.06;;;1.65;100.00
27334;BME280;14817;57.104;-2.094;2023-03-04T04:39:24;102125.84;;;1.65;100.00
27334;BME280;14817;57.104;-2.094;2023-03-04T04:41:51;102122.34;;;1.64;100.00
27334;BME280;14817;57.104;-2.094;2023-03-04T04:44:18;102123.84;;;1.71;100.00
27334;BME280;14817;57.104;-2.094;2023-03-04T04:46:45;102129.94;;;1.73;100.00
27334;BME280;14817;57.104;-2.094;2023-03-04T04:49:11;102123.72;;;1.74;100.00
27334;BME280;14817;57.104;-2.094;2023-03-04T04:51:38;102121.94;;;1.75;100.00
27334;BME280;14817;57.104;-2.094;2023-03-04T04:54:05;102122.03;;;1.73;100.00
27334;BME280;14817;57.104;-2.094;2023-03-04T04:56:32;102121.31;;;1.68;100.00
27334;BME280;14817;57.104;-2.094;2023-03-04T04:59:02;102116.09;;;1.67;100.00
27334;BME280;14817;57.104;-2.094;2023-03-04T05:01:29;102111.63;;;1.69;100.00
27334;BME280;14817;57.104;-2.094;2023-03-04T05:03:56;102122.19;;;1.69;100.00
27334;BME280;14817;57.104;-2.094;2023-03-04T05:06:23;102122.34;;;1.64;100.00
27334;BME280;14817;57.104;-2.094;2023-03-04T05:08:50;102120.63;;;1.63;100.00
27334;BME280;14817;57.104;-2.094;2023-03-04T05:11:18;102117.22;;;1.59;100.00
27334;BME280;14817;57.104;-2.094;2023-03-04T05:13:46;102117.44;;;1.53;100.00
27334;BME280;14817;57.104;-2.094;2023-03-04T05:16:14;102124.56;;;1.51;100.00
27334;BME280;14817;57.104;-2.094;2023-03-04T05:18:42;102117.38;;;1.55;100.00
27334;BME280;14817;57.104;-2.094;2023-03-04T05:21:08;102122.66;;;1.55;100.00
27334;BME280;14817;57.104;-2.094;2023-03-04T05:23:37;102121.88;;;1.53;100.00
27334;BME280;14817;57.104;-2.094;2023-03-04T05:26:06;102128.00;;;1.53;100.00
27334;BME280;14817;57.104;-2.094;2023-03-04T05:28:34;102128.34;;;1.44;100.00
27334;BME280;14817;57.104;-2.094;2023-03-04T05:31:01;102125.66;;;1.46;100.00
27334;BME280;14817;57.104;-2.094;2023-03-04T05:33:28;102128.22;;;1.47;100.00
27334;BME280;14817;57.104;-2.094;2023-03-04T05:35:56;102121.00;;;1.52;100.00
27334;BME280;14817;57.104;-2.094;2023-03-04T05:38:23;102128.88;;;1.54;100.00
27334;BME280;14817;57.104;-2.094;2023-03-04T05:40:57;102130.72;;;1.52;100.00
27334;BME280;14817;57.104;-2.094;2023-03-04T05:43:25;102121.34;;;1.43;100.00
27334;BME280;14817;57.104;-2.094;2023-03-04T05:45:53;102120.47;;;1.42;100.00
27334;BME280;14817;57.104;-2.094;2023-03-04T05:48:20;102122.25;;;1.42;100.00
27334;BME280;14817;57.104;-2.094;2023-03-04T05:50:55;102118.53;;;1.48;100.00
27334;BME280;14817;57.104;-2.094;2023-03-04T05:53:23;102118.41;;;1.51;100.00
27334;BME280;14817;57.104;-2.094;2023-03-04T05:55:50;102113.09;;;1.52;100.00
27334;BME280;14817;57.104;-2.094;2023-03-04T05:58:17;102118.06;;;1.60;100.00
27334;BME280;14817;57.104;-2.094;2023-03-04T06:00:44;102120.44;;;1.68;100.00
27334;BME280;14817;57.104;-2.094;2023-03-04T06:03:19;102124.59;;;1.75;100.00
27334;BME280;14817;57.104;-2.094;2023-03-04T06:05:47;102119.03;;;1.82;100.00
27334;BME280;14817;57.104;-2.094;2023-03-04T06:08:13;102118.91;;;1.86;100.00
27334;BME280;14817;57.104;-2.094;2023-03-04T06:10:40;102117.78;;;1.93;100.00
27334;BME280;14817;57.104;-2.094;2023-03-04T06:13:08;102120.38;;;1.94;100.00
27334;BME280;14817;57.104;-2.094;2023-03-04T06:15:35;102116.78;;;1.95;100.00
27334;BME280;14817;57.104;-2.094;2023-03-04T06:18:01;102120.78;;;2.07;100.00
27334;BME280;14817;57.104;-2.094;2023-03-04T06:20:28;102123.50;;;2.04;100.00
27334;BME280;14817;57.104;-2.094;2023-03-04T06:22:55;102118.22;;;2.04;100.00
27334;BME280;14817;57.104;-2.094;2023-03-04T06:25:23;102124.38;;;2.04;100.00
27334;BME280;14817;57.104;-2.094;2023-03-04T06:27:49;102118.81;;;2.12;100.00
27334;BME280;14817;57.104;-2.094;2023-03-04T06:30:18;102130.28;;;2.11;100.00
27334;BME280;14817;57.104;-2.094;2023-03-04T06:32:45;102133.63;;;2.16;100.00
27334;BME280;14817;57.104;-2.094;2023-03-04T06:35:14;102133.50;;;2.19;100.00
27334;BME280;14817;57.104;-2.094;2023-03-04T06:37:42;102134.06;;;2.28;100.00
27334;BME280;14817;57.104;-2.094;2023-03-04T06:40:09;102136.59;;;2.31;100.00
27334;BME280;14817;57.104;-2.094;2023-03-04T06:42:37;102138.69;;;2.44;100.00
27334;BME280;14817;57.104;-2.094;2023-03-04T06:45:04;102132.41;;;2.47;100.00
27334;BME280;14817;57.104;-2.094;2023-03-04T06:47:31;102136.09;;;2.43;100.00
27334;BME280;14817;57.104;-2.094;2023-03-04T06:49:58;102138.66;;;2.46;100.00
27334;BME280;14817;57.104;-2.094;2023-03-04T06:52:25;102134.97;;;2.50;100.00
27334;BME280;14817;57.104;-2.094;2023-03-04T06:54:52;102135.63;;;2.55;100.00
27334;BME280;14817;57.104;-2.094;2023-03-04T06:57:18;102141.72;;;2.57;100.00
27334;BME280;14817;57.104;-2.094;2023-03-04T06:59:45;102142.94;;;2.71;100.00
27334;BME280;14817;57.104;-2.094;2023-03-04T07:02:12;102144.78;;;2.69;100.00
27334;BME280;14817;57.104;-2.094;2023-03-04T07:04:39;102141.19;;;2.71;100.00
27334;BME280;14817;57.104;-2.094;2023-03-04T07:07:05;102148.94;;;2.76;100.00
27334;BME280;14817;57.104;-2.094;2023-03-04T07:09:32;102147.75;;;2.83;100.00
27334;BME280;14817;57.104;-2.094;2023-03-04T07:11:59;102147.44;;;2.91;100.00
27334;BME280;14817;57.104;-2.094;2023-03-04T07:14:26;102153.59;;;2.91;100.00
27334;BME280;14817;57.104;-2.094;2023-03-04T07:16:54;102151.75;;;2.93;100.00
27334;BME280;14817;57.104;-2.094;2023-03-04T07:19:21;102154.19;;;2.98;100.00
27334;BME280;14817;57.104;-2.094;2023-03-04T07:21:48;102161.94;;;3.02;100.00
27334;BME280;14817;57.104;-2.094;2023-03-04T07:24:15;102160.09;;;3.04;100.00
27334;BME280;14817;57.104;-2.094;2023-03-04T07:26:42;102159.00;;;3.10;100.00
27334;BME280;14817;57.104;-2.094;2023-03-04T07:29:12;102164.34;;;3.09;100.00
27334;BME280;14817;57.104;-2.094;2023-03-04T07:31:39;102166.88;;;3.12;100.00
27334;BME280;14817;57.104;-2.094;2023-03-04T07:34:09;102164.16;;;3.13;100.00
27334;BME280;14817;57.104;-2.094;2023-03-04T07:36:36;102165.75;;;3.17;100.00
27334;BME280;14817;57.104;-2.094;2023-03-04T07:39:03;102168.38;;;3.17;100.00
27334;BME280;14817;57.104;-2.094;2023-03-04T07:41:31;102175.22;;;3.23;100.00
27334;BME280;14817;57.104;-2.094;2023-03-04T07:44:02;102172.59;;;3.23;100.00
27334;BME280;14817;57.104;-2.094;2023-03-04T07:46:29;102173.50;;;3.22;100.00
27334;BME280;14817;57.104;-2.094;2023-03-04T07:48:56;102175.97;;;3.26;100.00
27334;BME280;14817;57.104;-2.094;2023-03-04T07:51:25;102175.63;;;3.34;100.00
27334;BME280;14817;57.104;-2.094;2023-03-04T07:53:55;102174.44;;;3.41;100.00
27334;BME280;14817;57.104;-2.094;2023-03-04T07:56:25;102168.28;;;3.41;100.00
27334;BME280;14817;57.104;-2.094;2023-03-04T07:58:52;102177.25;;;3.59;100.00
27334;BME280;14817;57.104;-2.094;2023-03-04T08:01:30;102171.03;;;3.99;100.00
27334;BME280;14817;57.104;-2.094;2023-03-04T08:03:58;102172.44;;;3.87;100.00
27334;BME280;14817;57.104;-2.094;2023-03-04T08:06:26;102161.88;;;4.25;100.00
27334;BME280;14817;57.104;-2.094;2023-03-04T08:09:02;102162.31;;;4.35;100.00
27334;BME280;14817;57.104;-2.094;2023-03-04T08:11:29;102157.31;;;4.10;100.00
27334;BME280;14817;57.104;-2.094;2023-03-04T08:13:56;102156.91;;;3.99;100.00
27334;BME280;14817;57.104;-2.094;2023-03-04T08:16:24;102156.91;;;3.99;100.00
27334;BME280;14817;57.104;-2.094;2023-03-04T08:18:56;102157.53;;;3.85;100.00
27334;BME280;14817;57.104;-2.094;2023-03-04T08:21:25;102152.66;;;3.95;100.00
27334;BME280;14817;57.104;-2.094;2023-03-04T08:23:53;102149.69;;;4.02;100.00
27334;BME280;14817;57.104;-2.094;2023-03-04T08:26:26;102157.22;;;4.12;100.00
27334;BME280;14817;57.104;-2.094;2023-03-04T08:28:54;102156.50;;;4.08;100.00
27334;BME280;14817;57.104;-2.094;2023-03-04T08:31:22;102145.38;;;4.00;100.00
27334;BME280;14817;57.104;-2.094;2023-03-04T08:33:50;102152.97;;;4.07;100.00
27334;BME280;14817;57.104;-2.094;2023-03-04T08:36:19;102155.06;;;4.39;100.00
27334;BME280;14817;57.104;-2.094;2023-03-04T08:38:46;102154.78;;;4.64;100.00
27334;BME280;14817;57.104;-2.094;2023-03-04T08:41:13;102161.19;;;5.14;100.00
27334;BME280;14817;57.104;-2.094;2023-03-04T08:43:41;102148.41;;;6.23;100.00
27334;BME280;14817;57.104;-2.094;2023-03-04T08:46:08;102151.94;;;6.40;100.00
27334;BME280;14817;57.104;-2.094;2023-03-04T08:48:36;102150.72;;;6.77;100.00
27334;BME280;14817;57.104;-2.094;2023-03-04T08:51:08;102149.84;;;7.67;100.00
27334;BME280;14817;57.104;-2.094;2023-03-04T08:53:36;102154.22;;;7.54;100.00
27334;BME280;14817;57.104;-2.094;2023-03-04T08:56:04;102143.09;;;8.19;100.00
27334;BME280;14817;57.104;-2.094;2023-03-04T08:58:31;102147.75;;;8.30;100.00
27334;BME280;14817;57.104;-2.094;2023-03-04T09:00:59;102153.78;;;8.05;100.00
27334;BME280;14817;57.104;-2.094;2023-03-04T09:03:26;102144.53;;;8.25;100.00
27334;BME280;14817;57.104;-2.094;2023-03-04T09:05:53;102149.19;;;8.50;100.00
27334;BME280;14817;57.104;-2.094;2023-03-04T09:08:20;102155.88;;;8.14;100.00
27334;BME280;14817;57.104;-2.094;2023-03-04T09:10:51;102155.78;;;7.72;100.00
27334;BME280;14817;57.104;-2.094;2023-03-04T09:13:18;102165.16;;;7.49;100.00
27334;BME280;14817;57.104;-2.094;2023-03-04T09:15:46;102165.00;;;7.22;100.00
27334;BME280;14817;57.104;-2.094;2023-03-04T09:18:14;102167.56;;;7.54;100.00
27334;BME280;14817;57.104;-2.094;2023-03-04T09:20:41;102163.66;;;7.15;100.00
27334;BME280;14817;57.104;-2.094;2023-03-04T09:23:08;102163.09;;;6.78;100.00
27334;BME280;14817;57.104;-2.094;2023-03-04T09:25:36;102169.72;;;6.55;100.00
27334;BME280;14817;57.104;-2.094;2023-03-04T09:28:03;102163.59;;;6.21;100.00
27334;BME280;14817;57.104;-2.094;2023-03-04T09:30:30;102162.69;;;6.38;100.00
27334;BME280;14817;57.104;-2.094;2023-03-04T09:32:57;102168.66;;;6.42;100.00
27334;BME280;14817;57.104;-2.094;2023-03-04T09:35:24;102163.00;;;6.32;100.00
27334;BME280;14817;57.104;-2.094;2023-03-04T09:37:51;102170.69;;;6.21;100.00
27334;BME280;14817;57.104;-2.094;2023-03-04T09:40:24;102164.63;;;6.34;100.00
27334;BME280;14817;57.104;-2.094;2023-03-04T09:42:55;102171.78;;;6.34;100.00
27334;BME280;14817;57.104;-2.094;2023-03-04T09:45:36;102166.84;;;6.26;100.00
27334;BME280;14817;57.104;-2.094;2023-03-04T09:48:04;102163.69;;;6.36;100.00
27334;BME280;14817;57.104;-2.094;2023-03-04T09:50:33;102161.13;;;6.50;100.00
27334;BME280;14817;57.104;-2.094;2023-03-04T09:55:44;102156.22;;;6.58;100.00
27334;BME280;14817;57.104;-2.094;2023-03-04T10:01:03;102148.44;;;7.31;100.00
27334;BME280;14817;57.104;-2.094;2023-03-04T10:03:53;102145.00;;;8.17;100.00
27334;BME280;14817;57.104;-2.094;2023-03-04T10:06:22;102140.91;;;8.82;100.00
27334;BME280;14817;57.104;-2.094;2023-03-04T10:08:58;102138.28;;;8.94;100.00
27334;BME280;14817;57.104;-2.094;2023-03-04T10:11:46;102145.13;;;8.71;100.00
27334;BME280;14817;57.104;-2.094;2023-03-04T10:16:52;102142.81;;;8.09;100.00
27334;BME280;14817;57.104;-2.094;2023-03-04T10:19:37;102147.50;;;8.20;100.00
27334;BME280;14817;57.104;-2.094;2023-03-04T10:22:19;102151.50;;;8.42;100.00
27334;BME280;14817;57.104;-2.094;2023-03-04T10:24:49;102151.84;;;8.64;100.00
27334;BME280;14817;57.104;-2.094;2023-03-04T10:27:18;102144.88;;;8.89;100.00
27334;BME280;14817;57.104;-2.094;2023-03-04T10:29:45;102143.34;;;8.85;100.00
27334;BME280;14817;57.104;-2.094;2023-03-04T10:32:17;102141.66;;;8.84;100.00
27334;BME280;14817;57.104;-2.094;2023-03-04T10:34:44;102147.84;;;8.43;100.00
27334;BME280;14817;57.104;-2.094;2023-03-04T10:37:11;102151.22;;;7.89;100.00
27334;BME280;14817;57.104;-2.094;2023-03-04T10:42:23;102161.59;;;7.34;100.00
27334;BME280;14817;57.104;-2.094;2023-03-04T10:44:55;102178.94;;;7.11;100.00
27334;BME280;14817;57.104;-2.094;2023-03-04T10:47:25;102169.53;;;6.58;100.00
27334;BME280;14817;57.104;-2.094;2023-03-04T10:49:55;102188.59;;;5.84;100.00
27334;BME280;14817;57.104;-2.094;2023-03-04T10:52:29;102184.47;;;5.61;100.00
27334;BME280;14817;57.104;-2.094;2023-03-04T10:55:05;102182.91;;;5.57;100.00
27334;BME280;14817;57.104;-2.094;2023-03-04T10:57:42;102187.44;;;5.20;100.00
27334;BME280;14817;57.104;-2.094;2023-03-04T11:00:35;102186.06;;;5.47;100.00
27334;BME280;14817;57.104;-2.094;2023-03-04T11:05:42;102185.34;;;5.79;100.00
27334;BME280;14817;57.104;-2.094;2023-03-04T11:08:17;102175.22;;;5.85;100.00
27334;BME280;14817;57.104;-2.094;2023-03-04T11:10:44;102169.00;;;6.20;100.00
27334;BME280;14817;57.104;-2.094;2023-03-04T11:13:23;102164.38;;;6.23;100.00
27334;BME280;14817;57.104;-2.094;2023-03-04T11:16:00;102166.13;;;6.40;100.00
27334;BME280;14817;57.104;-2.094;2023-03-04T11:18:43;102154.69;;;6.38;100.00
27334;BME280;14817;57.104;-2.094;2023-03-04T11:21:16;102152.94;;;6.85;100.00
27334;BME280;14817;57.104;-2.094;2023-03-04T11:24:03;102143.13;;;7.01;100.00
27334;BME280;14817;57.104;-2.094;2023-03-04T11:26:41;102135.25;;;7.44;100.00
27334;BME280;14817;57.104;-2.094;2023-03-04T11:32:04;102126.03;;;7.78;100.00
27334;BME280;14817;57.104;-2.094;2023-03-04T11:34:47;102110.50;;;7.42;100.00
27334;BME280;14817;57.104;-2.094;2023-03-04T11:37:26;102118.38;;;7.29;100.00
27334;BME280;14817;57.104;-2.094;2023-03-04T11:48:54;102106.28;;;7.38;100.00
27334;BME280;14817;57.104;-2.094;2023-03-04T11:51:57;102100.00;;;7.25;100.00
27334;BME280;14817;57.104;-2.094;2023-03-04T11:54:37;102101.59;;;7.13;100.00
27334;BME280;14817;57.104;-2.094;2023-03-04T11:57:11;102095.38;;;6.82;100.00
27334;BME280;14817;57.104;-2.094;2023-03-04T11:59:47;102093.66;;;6.51;100.00
27334;BME280;14817;57.104;-2.094;2023-03-04T12:02:19;102091.16;;;6.48;100.00
27334;BME280;14817;57.104;-2.094;2023-03-04T12:07:57;102083.19;;;6.16;100.00
27334;BME280;14817;57.104;-2.094;2023-03-04T12:19:17;102074.91;;;5.89;100.00
27334;BME280;14817;57.104;-2.094;2023-03-04T12:39:38;102075.88;;;5.70;100.00
27334;BME280;14817;57.104;-2.094;2023-03-04T12:44:41;102074.72;;;5.76;100.00
27334;BME280;14817;57.104;-2.094;2023-03-04T12:55:01;102091.06;;;6.49;100.00
27334;BME280;14817;57.104;-2.094;2023-03-04T12:57:29;102081.13;;;6.21;100.00
27334;BME280;14817;57.104;-2.094;2023-03-04T13:22:26;102058.97;;;5.56;100.00
27334;BME280;14817;57.104;-2.094;2023-03-04T13:24:53;102065.56;;;5.48;100.00
27334;BME280;14817;57.104;-2.094;2023-03-04T13:27:50;102066.81;;;5.41;100.00
27334;BME280;14817;57.104;-2.094;2023-03-04T13:35:59;102040.47;;;5.70;100.00
27334;BME280;14817;57.104;-2.094;2023-03-04T13:43:58;102014.84;;;5.69;100.00
27334;BME280;14817;57.104;-2.094;2023-03-04T14:04:30;102009.63;;;6.47;100.00
27334;BME280;14817;57.104;-2.094;2023-03-04T14:07:01;102011.97;;;6.21;100.00
27334;BME280;14817;57.104;-2.094;2023-03-04T14:09:31;102001.56;;;6.32;100.00
27334;BME280;14817;57.104;-2.094;2023-03-04T14:12:01;102002.50;;;6.31;100.00
27334;BME280;14817;57.104;-2.094;2023-03-04T14:14:49;102010.03;;;6.55;100.00
27334;BME280;14817;57.104;-2.094;2023-03-04T14:17:23;102001.22;;;6.39;100.00
27334;BME280;14817;57.104;-2.094;2023-03-04T14:19:51;101998.13;;;6.30;100.00
27334;BME280;14817;57.104;-2.094;2023-03-04T14:22:38;101992.31;;;6.24;100.00
27334;BME280;14817;57.104;-2.094;2023-03-04T14:27:45;101996.75;;;6.39;100.00
27334;BME280;14817;57.104;-2.094;2023-03-04T14:30:24;101990.88;;;6.02;100.00
27334;BME280;14817;57.104;-2.094;2023-03-04T14:33:10;101991.03;;;5.99;100.00
27334;BME280;14817;57.104;-2.094;2023-03-04T14:35:45;101992.56;;;6.19;100.00
27334;BME280;14817;57.104;-2.094;2023-03-04T14:38:23;101988.09;;;6.20;100.00
27334;BME280;14817;57.104;-2.094;2023-03-04T14:40:53;101990.59;;;6.07;100.00
27334;BME280;14817;57.104;-2.094;2023-03-04T14:43:21;101981.50;;;6.11;100.00
27334;BME280;14817;57.104;-2.094;2023-03-04T14:45:51;101984.72;;;6.02;100.00
27334;BME280;14817;57.104;-2.094;2023-03-04T14:48:26;101977.13;;;6.10;100.00
27334;BME280;14817;57.104;-2.094;2023-03-04T14:50:55;101980.31;;;6.01;100.00
27334;BME280;14817;57.104;-2.094;2023-03-04T14:53:24;101971.91;;;6.08;100.00
27334;BME280;14817;57.104;-2.094;2023-03-04T14:55:59;101968.38;;;6.24;100.00
27334;BME280;14817;57.104;-2.094;2023-03-04T14:58:31;101969.13;;;6.26;100.00